Terminal Aerodrome Forecast
Issued by NWS Omaha/Valley, NE

Home | Current Version | Previous Version | Text Only | Print | Product List | Glossary On
Versions: 1 2 3 4 5 6 7 8 9 10 11 12 13 14 15 16 17 18 19 20 21 22 23 24 25 26 27 28 29 30 31 32 33 34 35 36
000
FTUS43 KOAX 192340
TAFLNK
TAF
KLNK 192340Z 2000/2024 18008KT 6SM BR OVC012
     FM200400 18004KT 4SM BR OVC010
     FM200800 18005KT 2SM BR OVC007
      TEMPO 2012/2014 1SM BR OVC004
     FM201600 18004KT 4SM BR OVC006
     FM201800 19006KT P6SM OVC012=

USA.gov is the U.S. government's official web portal to all federal, state and local government web resources and services.